AFL2131 LTFM-UUEE
Flight info
| Callsign | AFL2131 |
|---|---|
| Flight time | 4h 23m |
| Altitude | 33000 |
| Route | EKAWE UT641 ABSAX UN743 ODIRA/K0837F330 G487 ERSAR DCT BEMES DCT VULFI DCT TUVGI DCT EVZUN DCT ZIZAR DCT VAZLU DCT UZZID DCT NOKLI N72 WGD G481 OBABI T619 UMRAL P163 GOLRI L736 OLOPI OLOPI3W |
| Aircraft | A321/M-MSDIE2E3FGHJ1RWY/LB1U1 |
Departure
| Time | 2026-05-07 15:44 |
|---|---|
| Airport | İstanbul Airport (LTFM) |
Arrival
| Time | 2026-05-07 20:08 |
|---|---|
| Airport | Sheremetyevo International Airport (UUEE) |
| Time | Latitude | Longitude | Altitude | Speed | Heading |
|---|---|---|---|---|---|
| 2026-05-07 14:23 | 41.26352 | 28.73979 | 334 ft | 0 kts | 179° |
| 2026-05-07 15:30 | 41.26363 | 28.73978 | 329 ft | 4 kts | 179° |
| 2026-05-07 15:30 | 41.26386 | 28.73978 | 342 ft | 4 kts | 170° |
| 2026-05-07 15:30 | 41.26407 | 28.73965 | 325 ft | 4 kts | 116° |
| 2026-05-07 15:31 | 41.26412 | 28.73934 | 329 ft | 2 kts | 91° |
| 2026-05-07 15:31 | 41.26412 | 28.73926 | 330 ft | 0 kts | 91° |
| 2026-05-07 15:36 | 41.26412 | 28.73929 | 330 ft | 2 kts | 91° |
| 2026-05-07 15:36 | 41.26412 | 28.73971 | 330 ft | 7 kts | 88° |
| 2026-05-07 15:36 | 41.26456 | 28.74026 | 334 ft | 12 kts | 9° |
| 2026-05-07 15:37 | 41.26541 | 28.74025 | 333 ft | 15 kts | 359° |
| 2026-05-07 15:37 | 41.26664 | 28.74023 | 333 ft | 20 kts | 359° |
| 2026-05-07 15:37 | 41.26815 | 28.74020 | 331 ft | 22 kts | 359° |
| 2026-05-07 15:37 | 41.26952 | 28.74016 | 333 ft | 18 kts | 359° |
| 2026-05-07 15:38 | 41.27042 | 28.73989 | 334 ft | 12 kts | 308° |
| 2026-05-07 15:38 | 41.27052 | 28.73892 | 334 ft | 10 kts | 269° |
| 2026-05-07 15:38 | 41.27051 | 28.73811 | 334 ft | 8 kts | 269° |
| 2026-05-07 15:38 | 41.27050 | 28.73738 | 334 ft | 8 kts | 269° |
| 2026-05-07 15:39 | 41.27049 | 28.73663 | 334 ft | 9 kts | 269° |
| 2026-05-07 15:39 | 41.27048 | 28.73558 | 334 ft | 14 kts | 269° |
| 2026-05-07 15:39 | 41.27046 | 28.73413 | 334 ft | 18 kts | 269° |
| 2026-05-07 15:39 | 41.27044 | 28.73233 | 334 ft | 20 kts | 269° |
| 2026-05-07 15:40 | 41.27042 | 28.73065 | 334 ft | 14 kts | 269° |
| 2026-05-07 15:40 | 41.27005 | 28.72987 | 333 ft | 7 kts | 193° |
| 2026-05-07 15:40 | 41.26960 | 28.72985 | 332 ft | 6 kts | 180° |
| 2026-05-07 15:40 | 41.26903 | 28.72987 | 332 ft | 10 kts | 178° |
| 2026-05-07 15:41 | 41.26814 | 28.72990 | 333 ft | 15 kts | 178° |
| 2026-05-07 15:41 | 41.26731 | 28.72973 | 331 ft | 12 kts | 222° |
| 2026-05-07 15:41 | 41.26714 | 28.72851 | 334 ft | 16 kts | 268° |
| 2026-05-07 15:41 | 41.26714 | 28.72685 | 329 ft | 20 kts | 269° |
| 2026-05-07 15:42 | 41.26711 | 28.72576 | 331 ft | 7 kts | 265° |
| 2026-05-07 15:42 | 41.26720 | 28.72522 | 331 ft | 5 kts | 311° |
| 2026-05-07 15:42 | 41.26746 | 28.72513 | 332 ft | 3 kts | 0° |
| 2026-05-07 15:42 | 41.26751 | 28.72513 | 333 ft | 0 kts | 359° |
| 2026-05-07 15:43 | 41.26765 | 28.72513 | 333 ft | 12 kts | 359° |
| 2026-05-07 15:43 | 41.27105 | 28.72506 | 334 ft | 83 kts | 359° |
| 2026-05-07 15:43 | 41.27878 | 28.72488 | 334 ft | 138 kts | 359° |
| 2026-05-07 15:44 | 41.28972 | 28.72460 | 347 ft | 178 kts | 359° |
| 2026-05-07 15:44 | 41.30238 | 28.72436 | 902 ft | 179 kts | 1° |
| 2026-05-07 15:44 | 41.31476 | 28.72438 | 1527 ft | 180 kts | 360° |
| 2026-05-07 15:44 | 41.32738 | 28.72454 | 2105 ft | 184 kts | 359° |
| 2026-05-07 15:45 | 41.34074 | 28.72471 | 2295 ft | 201 kts | 358° |
| 2026-05-07 15:45 | 41.35542 | 28.72488 | 2417 ft | 220 kts | 358° |
| 2026-05-07 15:45 | 41.37150 | 28.72502 | 2558 ft | 241 kts | 358° |
| 2026-05-07 15:45 | 41.38885 | 28.72703 | 2777 ft | 262 kts | 19° |
| 2026-05-07 15:46 | 41.41287 | 28.76394 | 3964 ft | 279 kts | 65° |
| 2026-05-07 15:46 | 41.42067 | 28.78769 | 4663 ft | 280 kts | 65° |
| 2026-05-07 15:46 | 41.42851 | 28.81159 | 5335 ft | 282 kts | 65° |
| 2026-05-07 15:47 | 41.43646 | 28.83571 | 5972 ft | 286 kts | 64° |
| 2026-05-07 15:47 | 41.44453 | 28.86009 | 6635 ft | 288 kts | 64° |
| 2026-05-07 15:47 | 41.45267 | 28.88465 | 7262 ft | 290 kts | 64° |
| 2026-05-07 15:47 | 41.46086 | 28.90927 | 7888 ft | 292 kts | 64° |
| 2026-05-07 15:48 | 41.46900 | 28.93377 | 8483 ft | 293 kts | 64° |
| 2026-05-07 15:48 | 41.47740 | 28.95905 | 9106 ft | 296 kts | 64° |
| 2026-05-07 15:48 | 41.48576 | 28.98424 | 9723 ft | 298 kts | 64° |
| 2026-05-07 15:48 | 41.49406 | 29.00923 | 10244 ft | 303 kts | 64° |
| 2026-05-07 15:49 | 41.50293 | 29.03581 | 10365 ft | 322 kts | 64° |
| 2026-05-07 15:49 | 41.51226 | 29.06388 | 10496 ft | 340 kts | 64° |
| 2026-05-07 15:49 | 41.52202 | 29.09337 | 10625 ft | 355 kts | 64° |
| 2026-05-07 15:49 | 41.53219 | 29.12413 | 10892 ft | 366 kts | 64° |
| 2026-05-07 15:50 | 41.54256 | 29.15543 | 11362 ft | 370 kts | 64° |
| 2026-05-07 15:50 | 41.55297 | 29.18696 | 11880 ft | 373 kts | 64° |
| 2026-05-07 15:50 | 41.56344 | 29.21875 | 12427 ft | 374 kts | 64° |
| 2026-05-07 15:50 | 41.57396 | 29.25070 | 12951 ft | 376 kts | 64° |
| 2026-05-07 15:51 | 41.58451 | 29.28282 | 13476 ft | 378 kts | 65° |
| 2026-05-07 15:51 | 41.59506 | 29.31513 | 13974 ft | 381 kts | 65° |
| 2026-05-07 15:51 | 41.60566 | 29.34766 | 14401 ft | 383 kts | 65° |
| 2026-05-07 15:51 | 41.61635 | 29.38040 | 14825 ft | 385 kts | 64° |
| 2026-05-07 15:52 | 41.62711 | 29.41331 | 15264 ft | 388 kts | 64° |
| 2026-05-07 15:52 | 41.63794 | 29.44642 | 15667 ft | 390 kts | 64° |
| 2026-05-07 15:52 | 41.64885 | 29.47972 | 16082 ft | 392 kts | 64° |
| 2026-05-07 15:52 | 41.65966 | 29.51283 | 16479 ft | 394 kts | 64° |
| 2026-05-07 15:53 | 41.67065 | 29.54658 | 16875 ft | 397 kts | 64° |
| 2026-05-07 15:53 | 41.68171 | 29.58052 | 17248 ft | 399 kts | 64° |
| 2026-05-07 15:53 | 41.69278 | 29.61457 | 17614 ft | 401 kts | 64° |
| 2026-05-07 15:53 | 41.70390 | 29.64884 | 17973 ft | 403 kts | 64° |
| 2026-05-07 15:54 | 41.71506 | 29.68333 | 18325 ft | 405 kts | 64° |
| 2026-05-07 15:54 | 41.72628 | 29.71804 | 18637 ft | 406 kts | 63° |
| 2026-05-07 15:54 | 41.73754 | 29.75280 | 18932 ft | 408 kts | 63° |
| 2026-05-07 15:54 | 41.74886 | 29.78785 | 19230 ft | 410 kts | 63° |
| 2026-05-07 15:55 | 41.76005 | 29.82259 | 19524 ft | 412 kts | 63° |
| 2026-05-07 15:55 | 41.77140 | 29.85789 | 19808 ft | 413 kts | 63° |
| 2026-05-07 15:55 | 41.78281 | 29.89338 | 20104 ft | 415 kts | 63° |
| 2026-05-07 15:55 | 41.79423 | 29.92899 | 20402 ft | 417 kts | 63° |
| 2026-05-07 15:56 | 41.80566 | 29.96474 | 20706 ft | 419 kts | 63° |
| 2026-05-07 15:56 | 41.81715 | 30.00069 | 21021 ft | 420 kts | 63° |
| 2026-05-07 15:56 | 41.82869 | 30.03677 | 21325 ft | 422 kts | 63° |
| 2026-05-07 15:56 | 41.84030 | 30.07309 | 21638 ft | 424 kts | 62° |
| 2026-05-07 15:57 | 41.85194 | 30.10955 | 21960 ft | 426 kts | 62° |
| 2026-05-07 15:57 | 41.86346 | 30.14576 | 22265 ft | 428 kts | 62° |
| 2026-05-07 15:57 | 41.87531 | 30.18306 | 22577 ft | 430 kts | 62° |
| 2026-05-07 15:57 | 41.88705 | 30.22013 | 22885 ft | 432 kts | 62° |
| 2026-05-07 15:58 | 41.89864 | 30.25684 | 23169 ft | 434 kts | 62° |
| 2026-05-07 15:58 | 41.91045 | 30.29427 | 23460 ft | 436 kts | 62° |
| 2026-05-07 15:58 | 41.92234 | 30.33184 | 23736 ft | 438 kts | 62° |
| 2026-05-07 15:58 | 41.93432 | 30.36964 | 23971 ft | 440 kts | 62° |
| 2026-05-07 15:59 | 41.94634 | 30.40753 | 24211 ft | 442 kts | 62° |
| 2026-05-07 15:59 | 41.95836 | 30.44560 | 24461 ft | 444 kts | 62° |
| 2026-05-07 15:59 | 41.97041 | 30.48396 | 24706 ft | 446 kts | 62° |
| 2026-05-07 15:59 | 41.98243 | 30.52239 | 24962 ft | 447 kts | 63° |
| 2026-05-07 16:00 | 41.99218 | 30.56240 | 25202 ft | 455 kts | 72° |
| 2026-05-07 16:00 | 41.99739 | 30.60466 | 25432 ft | 462 kts | 81° |
| 2026-05-07 16:00 | 41.99832 | 30.64811 | 25659 ft | 466 kts | 85° |
| 2026-05-07 16:00 | 41.99856 | 30.69183 | 25895 ft | 469 kts | 85° |
| 2026-05-07 16:01 | 41.99890 | 30.73571 | 26142 ft | 470 kts | 84° |
| 2026-05-07 16:01 | 41.99928 | 30.77973 | 26386 ft | 471 kts | 84° |
| 2026-05-07 16:01 | 41.99964 | 30.82379 | 26620 ft | 473 kts | 85° |
| 2026-05-07 16:01 | 41.99994 | 30.86807 | 26846 ft | 474 kts | 85° |
| 2026-05-07 16:02 | 42.00018 | 30.91242 | 27063 ft | 476 kts | 85° |
| 2026-05-07 16:02 | 42.00035 | 30.95695 | 27271 ft | 477 kts | 85° |
| 2026-05-07 16:02 | 42.00110 | 31.00150 | 27468 ft | 475 kts | 80° |
| 2026-05-07 16:02 | 42.00578 | 31.04467 | 27657 ft | 471 kts | 72° |
| 2026-05-07 16:03 | 42.01439 | 31.08694 | 27852 ft | 469 kts | 68° |
| 2026-05-07 16:03 | 42.02356 | 31.12912 | 28029 ft | 470 kts | 68° |
| 2026-05-07 16:03 | 42.03261 | 31.17135 | 28203 ft | 471 kts | 69° |
| 2026-05-07 16:03 | 42.04154 | 31.21371 | 28441 ft | 470 kts | 69° |
| 2026-05-07 16:04 | 42.04753 | 31.24231 | 28606 ft | 470 kts | 69° |
| 2026-05-07 16:04 | 42.05627 | 31.28399 | 28832 ft | 469 kts | 69° |
| 2026-05-07 16:04 | 42.06523 | 31.32668 | 29085 ft | 468 kts | 69° |
| 2026-05-07 16:04 | 42.07399 | 31.36826 | 29300 ft | 467 kts | 69° |
| 2026-05-07 16:05 | 42.08286 | 31.41031 | 29536 ft | 466 kts | 68° |
| 2026-05-07 16:05 | 42.09170 | 31.45223 | 29771 ft | 466 kts | 68° |
| 2026-05-07 16:05 | 42.10053 | 31.49411 | 30002 ft | 465 kts | 68° |
| 2026-05-07 16:05 | 42.10934 | 31.53603 | 30245 ft | 464 kts | 68° |
| 2026-05-07 16:06 | 42.11806 | 31.57784 | 30428 ft | 463 kts | 68° |
| 2026-05-07 16:06 | 42.12674 | 31.61960 | 30622 ft | 463 kts | 68° |
| 2026-05-07 16:06 | 42.13539 | 31.66131 | 30816 ft | 462 kts | 68° |
| 2026-05-07 16:06 | 42.14402 | 31.70292 | 31009 ft | 461 kts | 68° |
| 2026-05-07 16:07 | 42.15264 | 31.74448 | 31203 ft | 460 kts | 68° |
| 2026-05-07 16:07 | 42.16129 | 31.78609 | 31408 ft | 460 kts | 68° |
| 2026-05-07 16:07 | 42.16990 | 31.82762 | 31613 ft | 459 kts | 69° |
| 2026-05-07 16:07 | 42.17844 | 31.86907 | 31812 ft | 459 kts | 69° |
| 2026-05-07 16:08 | 42.18696 | 31.91052 | 32012 ft | 458 kts | 69° |
| 2026-05-07 16:08 | 42.19545 | 31.95186 | 32210 ft | 457 kts | 69° |
| 2026-05-07 16:08 | 42.20390 | 31.99312 | 32403 ft | 457 kts | 69° |
| 2026-05-07 16:08 | 42.21235 | 32.03453 | 32597 ft | 456 kts | 69° |
| 2026-05-07 16:09 | 42.22076 | 32.07585 | 32781 ft | 456 kts | 69° |
| 2026-05-07 16:09 | 42.22915 | 32.11707 | 32963 ft | 456 kts | 69° |
| 2026-05-07 16:09 | 42.23753 | 32.15830 | 33119 ft | 455 kts | 69° |
| 2026-05-07 16:10 | 42.25426 | 32.23972 | 33145 ft | 451 kts | 68° |
| 2026-05-07 16:10 | 42.27276 | 32.32039 | 33148 ft | 449 kts | 66° |
| 2026-05-07 16:11 | 42.29186 | 32.40073 | 33146 ft | 449 kts | 67° |
| 2026-05-07 16:11 | 42.31052 | 32.48137 | 33147 ft | 449 kts | 68° |
| 2026-05-07 16:12 | 42.32676 | 32.56323 | 33145 ft | 455 kts | 77° |
| 2026-05-07 16:12 | 42.32620 | 32.64958 | 33153 ft | 465 kts | 94° |
| 2026-05-07 16:13 | 42.31639 | 32.73542 | 33149 ft | 465 kts | 94° |
| 2026-05-07 16:13 | 42.30664 | 32.82183 | 33150 ft | 465 kts | 94° |
| 2026-05-07 16:14 | 42.29689 | 32.90827 | 33150 ft | 465 kts | 94° |
| 2026-05-07 16:14 | 42.28699 | 32.99469 | 33155 ft | 465 kts | 95° |
| 2026-05-07 16:15 | 42.27697 | 33.08094 | 33147 ft | 465 kts | 95° |
| 2026-05-07 16:15 | 42.26693 | 33.16709 | 33146 ft | 465 kts | 95° |
| 2026-05-07 16:16 | 42.25675 | 33.25333 | 33155 ft | 465 kts | 95° |
| 2026-05-07 16:16 | 42.24655 | 33.33936 | 33173 ft | 464 kts | 95° |
| 2026-05-07 16:17 | 42.23631 | 33.42530 | 33171 ft | 464 kts | 95° |
| 2026-05-07 16:17 | 42.22598 | 33.51118 | 33167 ft | 463 kts | 95° |
| 2026-05-07 16:18 | 42.21562 | 33.59702 | 33171 ft | 463 kts | 95° |
| 2026-05-07 16:18 | 42.20527 | 33.68271 | 33170 ft | 463 kts | 96° |
| 2026-05-07 16:19 | 42.19501 | 33.76845 | 33176 ft | 461 kts | 92° |
| 2026-05-07 16:19 | 42.19687 | 33.85367 | 33181 ft | 451 kts | 75° |
| 2026-05-07 16:20 | 42.21140 | 33.93508 | 33176 ft | 449 kts | 72° |
| 2026-05-07 16:20 | 42.22626 | 34.01701 | 33179 ft | 450 kts | 72° |
| 2026-05-07 16:21 | 42.24099 | 34.09906 | 33179 ft | 449 kts | 72° |
| 2026-05-07 16:21 | 42.25567 | 34.18105 | 33182 ft | 449 kts | 72° |
| 2026-05-07 16:22 | 42.27038 | 34.26313 | 33187 ft | 449 kts | 72° |
| 2026-05-07 16:22 | 42.28488 | 34.34463 | 33190 ft | 449 kts | 72° |
| 2026-05-07 16:23 | 42.29948 | 34.42664 | 33185 ft | 448 kts | 72° |
| 2026-05-07 16:23 | 42.31398 | 34.50867 | 33193 ft | 448 kts | 73° |
| 2026-05-07 16:24 | 42.32837 | 34.59069 | 33185 ft | 448 kts | 73° |
| 2026-05-07 16:24 | 42.34265 | 34.67258 | 33186 ft | 448 kts | 73° |
| 2026-05-07 16:25 | 42.35689 | 34.75451 | 33187 ft | 448 kts | 73° |
| 2026-05-07 16:25 | 42.37110 | 34.83654 | 33195 ft | 448 kts | 73° |
| 2026-05-07 16:26 | 42.38520 | 34.91863 | 33194 ft | 448 kts | 73° |
| 2026-05-07 16:26 | 42.39919 | 35.00016 | 33194 ft | 448 kts | 73° |
| 2026-05-07 16:27 | 42.41323 | 35.08226 | 33197 ft | 447 kts | 73° |
| 2026-05-07 16:27 | 42.42715 | 35.16430 | 33205 ft | 447 kts | 74° |
| 2026-05-07 16:28 | 42.44095 | 35.24644 | 33199 ft | 447 kts | 74° |
| 2026-05-07 16:28 | 42.45464 | 35.32788 | 33197 ft | 446 kts | 74° |
| 2026-05-07 16:29 | 42.46840 | 35.40977 | 33195 ft | 445 kts | 75° |
| 2026-05-07 16:29 | 42.48205 | 35.49174 | 33199 ft | 445 kts | 75° |
| 2026-05-07 16:30 | 42.49558 | 35.57355 | 33196 ft | 444 kts | 75° |
| 2026-05-07 16:30 | 42.50894 | 35.65465 | 33199 ft | 444 kts | 75° |
| 2026-05-07 16:31 | 42.52235 | 35.73632 | 33199 ft | 443 kts | 75° |
| 2026-05-07 16:31 | 42.53579 | 35.81813 | 33203 ft | 443 kts | 76° |
| 2026-05-07 16:32 | 42.54907 | 35.89956 | 33203 ft | 443 kts | 76° |
| 2026-05-07 16:32 | 42.56232 | 35.98137 | 33207 ft | 443 kts | 76° |
| 2026-05-07 16:33 | 42.57544 | 36.06304 | 33204 ft | 443 kts | 76° |
| 2026-05-07 16:33 | 42.58849 | 36.14424 | 33211 ft | 442 kts | 76° |
| 2026-05-07 16:34 | 42.60151 | 36.22584 | 33205 ft | 443 kts | 76° |
| 2026-05-07 16:34 | 42.61449 | 36.30757 | 33213 ft | 443 kts | 76° |
| 2026-05-07 16:34 | 42.62097 | 36.34846 | 33332 ft | 445 kts | 76° |
| 2026-05-07 16:35 | 42.62750 | 36.38969 | 33470 ft | 446 kts | 77° |
| 2026-05-07 16:35 | 42.63402 | 36.43094 | 33630 ft | 446 kts | 77° |
| 2026-05-07 16:35 | 42.64051 | 36.47209 | 33788 ft | 446 kts | 76° |
| 2026-05-07 16:35 | 42.64691 | 36.51285 | 33951 ft | 446 kts | 77° |
| 2026-05-07 16:36 | 42.65333 | 36.55404 | 34097 ft | 447 kts | 77° |
| 2026-05-07 16:36 | 42.65973 | 36.59537 | 34252 ft | 447 kts | 77° |
| 2026-05-07 16:36 | 42.66610 | 36.63663 | 34382 ft | 446 kts | 77° |
| 2026-05-07 16:36 | 42.67248 | 36.67793 | 34507 ft | 447 kts | 77° |
| 2026-05-07 16:37 | 42.67888 | 36.71922 | 34635 ft | 447 kts | 77° |
| 2026-05-07 16:37 | 42.68527 | 36.76052 | 34757 ft | 447 kts | 77° |
| 2026-05-07 16:37 | 42.69166 | 36.80195 | 34873 ft | 447 kts | 77° |
| 2026-05-07 16:37 | 42.69801 | 36.84325 | 35001 ft | 447 kts | 77° |
| 2026-05-07 16:38 | 42.70436 | 36.88456 | 35146 ft | 446 kts | 77° |
| 2026-05-07 16:38 | 42.72414 | 36.96425 | 35205 ft | 445 kts | 66° |
| 2026-05-07 16:39 | 42.74818 | 37.04200 | 35202 ft | 445 kts | 66° |
| 2026-05-07 16:39 | 42.77205 | 37.11975 | 35202 ft | 445 kts | 66° |
| 2026-05-07 16:40 | 42.79576 | 37.19746 | 35208 ft | 444 kts | 67° |
| 2026-05-07 16:40 | 42.81927 | 37.27484 | 35209 ft | 444 kts | 67° |
| 2026-05-07 16:41 | 42.84291 | 37.35262 | 35209 ft | 444 kts | 67° |
| 2026-05-07 16:41 | 42.86653 | 37.43036 | 35213 ft | 444 kts | 67° |
| 2026-05-07 16:42 | 42.89003 | 37.50820 | 35216 ft | 444 kts | 67° |
| 2026-05-07 16:42 | 42.91345 | 37.58608 | 35219 ft | 444 kts | 67° |
| 2026-05-07 16:43 | 42.93683 | 37.66398 | 35222 ft | 443 kts | 67° |
| 2026-05-07 16:43 | 42.96017 | 37.74178 | 35217 ft | 443 kts | 68° |
| 2026-05-07 16:44 | 42.98328 | 37.81967 | 35225 ft | 443 kts | 68° |
| 2026-05-07 16:44 | 43.00634 | 37.89769 | 35228 ft | 443 kts | 68° |
| 2026-05-07 16:45 | 43.02935 | 37.97562 | 35222 ft | 442 kts | 68° |
| 2026-05-07 16:45 | 43.05219 | 38.05359 | 35226 ft | 441 kts | 68° |
| 2026-05-07 16:46 | 43.07481 | 38.13161 | 35227 ft | 441 kts | 68° |
| 2026-05-07 16:46 | 43.09723 | 38.20901 | 35220 ft | 441 kts | 68° |
| 2026-05-07 16:47 | 43.12000 | 38.28682 | 35221 ft | 440 kts | 68° |
| 2026-05-07 16:47 | 43.14280 | 38.36451 | 35225 ft | 440 kts | 68° |
| 2026-05-07 16:48 | 43.16548 | 38.44213 | 35217 ft | 439 kts | 68° |
| 2026-05-07 16:48 | 43.18804 | 38.51978 | 35210 ft | 439 kts | 68° |
| 2026-05-07 16:49 | 43.21046 | 38.59753 | 35209 ft | 438 kts | 69° |
| 2026-05-07 16:49 | 43.23293 | 38.67527 | 35211 ft | 439 kts | 69° |
| 2026-05-07 16:50 | 43.25537 | 38.75310 | 35210 ft | 438 kts | 69° |
| 2026-05-07 16:50 | 43.27766 | 38.83104 | 35213 ft | 439 kts | 69° |
| 2026-05-07 16:51 | 43.29594 | 38.89600 | 35211 ft | 438 kts | 69° |
| 2026-05-07 16:51 | 43.31775 | 38.97413 | 35209 ft | 438 kts | 69° |
| 2026-05-07 16:52 | 43.33961 | 39.05231 | 35207 ft | 438 kts | 69° |
| 2026-05-07 16:52 | 43.36237 | 39.13015 | 35207 ft | 439 kts | 66° |
| 2026-05-07 16:53 | 43.38822 | 39.20628 | 35209 ft | 439 kts | 64° |
| 2026-05-07 16:53 | 43.41485 | 39.28194 | 35211 ft | 439 kts | 65° |
| 2026-05-07 16:54 | 43.44086 | 39.35794 | 35213 ft | 439 kts | 65° |
| 2026-05-07 16:54 | 43.46618 | 39.43393 | 35217 ft | 440 kts | 66° |
| 2026-05-07 16:55 | 43.49161 | 39.51050 | 35216 ft | 440 kts | 66° |
| 2026-05-07 16:55 | 43.51726 | 39.58747 | 35219 ft | 440 kts | 66° |
| 2026-05-07 16:56 | 43.54273 | 39.66407 | 35224 ft | 440 kts | 66° |
| 2026-05-07 16:56 | 43.58092 | 39.77939 | 35225 ft | 441 kts | 66° |
| 2026-05-07 16:57 | 43.60613 | 39.85622 | 35228 ft | 441 kts | 66° |
| 2026-05-07 16:57 | 43.63122 | 39.93329 | 35227 ft | 441 kts | 66° |
| 2026-05-07 16:58 | 43.65650 | 40.01087 | 35221 ft | 441 kts | 66° |
| 2026-05-07 16:58 | 43.68158 | 40.08784 | 35216 ft | 441 kts | 66° |
| 2026-05-07 16:59 | 43.70658 | 40.16492 | 35216 ft | 442 kts | 66° |
| 2026-05-07 16:59 | 43.73182 | 40.24295 | 35207 ft | 442 kts | 66° |
| 2026-05-07 17:00 | 43.75675 | 40.32018 | 35210 ft | 442 kts | 66° |
| 2026-05-07 17:00 | 43.78177 | 40.39792 | 35209 ft | 442 kts | 66° |
| 2026-05-07 17:01 | 43.80655 | 40.47523 | 35211 ft | 442 kts | 66° |
| 2026-05-07 17:01 | 43.83146 | 40.55316 | 35211 ft | 442 kts | 67° |
| 2026-05-07 17:02 | 43.85629 | 40.63108 | 35213 ft | 442 kts | 67° |
| 2026-05-07 17:02 | 43.88109 | 40.70915 | 35215 ft | 442 kts | 67° |
| 2026-05-07 17:03 | 43.90573 | 40.78747 | 35218 ft | 443 kts | 67° |
| 2026-05-07 17:03 | 43.92995 | 40.86572 | 35211 ft | 442 kts | 68° |
| 2026-05-07 17:04 | 43.95402 | 40.94374 | 35209 ft | 443 kts | 67° |
| 2026-05-07 17:04 | 43.97828 | 41.02245 | 35204 ft | 442 kts | 67° |
| 2026-05-07 17:05 | 44.00248 | 41.10086 | 35201 ft | 442 kts | 67° |
| 2026-05-07 17:05 | 44.02675 | 41.17944 | 35200 ft | 442 kts | 67° |
| 2026-05-07 17:06 | 44.05071 | 41.25770 | 35199 ft | 442 kts | 68° |
| 2026-05-07 17:06 | 44.07469 | 41.33667 | 35199 ft | 442 kts | 68° |
| 2026-05-07 17:07 | 44.09865 | 41.41545 | 35200 ft | 442 kts | 68° |
| 2026-05-07 17:07 | 44.11551 | 41.49706 | 35200 ft | 440 kts | 84° |
| 2026-05-07 17:08 | 44.11546 | 41.58187 | 35193 ft | 440 kts | 92° |
| 2026-05-07 17:08 | 44.11317 | 41.66687 | 35189 ft | 440 kts | 92° |
| 2026-05-07 17:09 | 44.11092 | 41.75193 | 35190 ft | 441 kts | 92° |
| 2026-05-07 17:09 | 44.10857 | 41.83765 | 35191 ft | 441 kts | 92° |
| 2026-05-07 17:10 | 44.10613 | 41.92273 | 35185 ft | 441 kts | 92° |
| 2026-05-07 17:10 | 44.10363 | 42.00810 | 35189 ft | 441 kts | 92° |
| 2026-05-07 17:11 | 44.10114 | 42.09283 | 35185 ft | 441 kts | 92° |
| 2026-05-07 17:11 | 44.09853 | 42.17839 | 35185 ft | 442 kts | 92° |
| 2026-05-07 17:12 | 44.09584 | 42.26346 | 35180 ft | 441 kts | 92° |
| 2026-05-07 17:12 | 44.09313 | 42.34882 | 35184 ft | 442 kts | 92° |
| 2026-05-07 17:13 | 44.09031 | 42.43468 | 35179 ft | 442 kts | 92° |
| 2026-05-07 17:13 | 44.08746 | 42.51997 | 35182 ft | 443 kts | 92° |
| 2026-05-07 17:14 | 44.08453 | 42.60528 | 35172 ft | 443 kts | 92° |
| 2026-05-07 17:14 | 44.08155 | 42.69064 | 35170 ft | 443 kts | 92° |
| 2026-05-07 17:15 | 44.07845 | 42.77629 | 35162 ft | 443 kts | 93° |
| 2026-05-07 17:15 | 44.07528 | 42.86209 | 35164 ft | 444 kts | 92° |
| 2026-05-07 17:16 | 44.07212 | 42.94769 | 35154 ft | 444 kts | 93° |
| 2026-05-07 17:16 | 44.06885 | 43.03302 | 35163 ft | 445 kts | 93° |
| 2026-05-07 17:17 | 44.06551 | 43.11925 | 35164 ft | 445 kts | 93° |
| 2026-05-07 17:17 | 44.06205 | 43.20522 | 35161 ft | 445 kts | 93° |
| 2026-05-07 17:18 | 44.05861 | 43.29061 | 35156 ft | 445 kts | 93° |
| 2026-05-07 17:18 | 44.05502 | 43.37685 | 35149 ft | 445 kts | 93° |
| 2026-05-07 17:19 | 44.05152 | 43.46234 | 35134 ft | 446 kts | 93° |
| 2026-05-07 17:19 | 44.04791 | 43.54842 | 35129 ft | 446 kts | 93° |
| 2026-05-07 17:20 | 44.04413 | 43.63440 | 35119 ft | 446 kts | 94° |
| 2026-05-07 17:20 | 44.04026 | 43.72098 | 35116 ft | 447 kts | 94° |
| 2026-05-07 17:21 | 44.03639 | 43.80706 | 35111 ft | 447 kts | 94° |
| 2026-05-07 17:21 | 44.03250 | 43.89312 | 35112 ft | 448 kts | 94° |
| 2026-05-07 17:22 | 44.02843 | 43.97948 | 35113 ft | 448 kts | 94° |
| 2026-05-07 17:22 | 44.02437 | 44.06592 | 35114 ft | 448 kts | 94° |
| 2026-05-07 17:23 | 44.02026 | 44.15240 | 35119 ft | 448 kts | 94° |
| 2026-05-07 17:23 | 44.01602 | 44.23865 | 35120 ft | 449 kts | 94° |
| 2026-05-07 17:24 | 44.01173 | 44.32525 | 35120 ft | 449 kts | 94° |
| 2026-05-07 17:24 | 44.00735 | 44.41196 | 35121 ft | 449 kts | 94° |
| 2026-05-07 17:25 | 44.00292 | 44.49886 | 35118 ft | 450 kts | 94° |
| 2026-05-07 17:25 | 43.99851 | 44.58505 | 35120 ft | 450 kts | 95° |
| 2026-05-07 17:26 | 43.99396 | 44.67220 | 35115 ft | 451 kts | 95° |
| 2026-05-07 17:26 | 43.98932 | 44.75889 | 35118 ft | 452 kts | 95° |
| 2026-05-07 17:27 | 43.98460 | 44.84605 | 35113 ft | 453 kts | 95° |
| 2026-05-07 17:27 | 43.97979 | 44.93331 | 35115 ft | 453 kts | 95° |
| 2026-05-07 17:28 | 43.97488 | 45.02037 | 35115 ft | 454 kts | 95° |
| 2026-05-07 17:28 | 43.96995 | 45.10759 | 35119 ft | 453 kts | 94° |
| 2026-05-07 17:29 | 43.96502 | 45.19467 | 35125 ft | 453 kts | 95° |
| 2026-05-07 17:29 | 43.96003 | 45.28191 | 35124 ft | 453 kts | 95° |
| 2026-05-07 17:30 | 43.95496 | 45.36926 | 35120 ft | 454 kts | 95° |
| 2026-05-07 17:30 | 43.94967 | 45.45656 | 35112 ft | 454 kts | 95° |
| 2026-05-07 17:31 | 43.94436 | 45.54416 | 35104 ft | 455 kts | 95° |
| 2026-05-07 17:31 | 43.93906 | 45.63169 | 35101 ft | 455 kts | 95° |
| 2026-05-07 17:32 | 43.93369 | 45.71871 | 35094 ft | 456 kts | 95° |
| 2026-05-07 17:32 | 43.92910 | 45.79228 | 35091 ft | 456 kts | 96° |
| 2026-05-07 17:33 | 43.92343 | 45.89468 | 35085 ft | 457 kts | 90° |
| 2026-05-07 17:33 | 43.92876 | 45.98198 | 35085 ft | 459 kts | 84° |
| 2026-05-07 17:34 | 43.93533 | 46.07043 | 35086 ft | 459 kts | 85° |
| 2026-05-07 17:34 | 43.94179 | 46.15843 | 35082 ft | 460 kts | 85° |
| 2026-05-07 17:35 | 43.94816 | 46.24703 | 35079 ft | 460 kts | 85° |
| 2026-05-07 17:35 | 43.95438 | 46.33509 | 35084 ft | 460 kts | 85° |
| 2026-05-07 17:36 | 43.96050 | 46.42312 | 35081 ft | 460 kts | 85° |
| 2026-05-07 17:36 | 43.96657 | 46.51219 | 35081 ft | 461 kts | 85° |
| 2026-05-07 17:37 | 43.97260 | 46.60063 | 35077 ft | 461 kts | 85° |
| 2026-05-07 17:37 | 43.97858 | 46.68887 | 35076 ft | 462 kts | 85° |
| 2026-05-07 17:38 | 43.98461 | 46.77792 | 35074 ft | 463 kts | 85° |
| 2026-05-07 17:38 | 43.99046 | 46.86666 | 35074 ft | 463 kts | 86° |
| 2026-05-07 17:39 | 43.99529 | 46.94094 | 35073 ft | 463 kts | 86° |
| 2026-05-07 17:39 | 44.00097 | 47.03049 | 35072 ft | 464 kts | 86° |
| 2026-05-07 17:40 | 44.00657 | 47.11926 | 35066 ft | 463 kts | 86° |
| 2026-05-07 17:40 | 44.01225 | 47.20879 | 35062 ft | 464 kts | 86° |
| 2026-05-07 17:41 | 44.01787 | 47.29776 | 35059 ft | 464 kts | 86° |
| 2026-05-07 17:41 | 44.02339 | 47.38688 | 35055 ft | 464 kts | 86° |
| 2026-05-07 17:42 | 44.02889 | 47.47685 | 35054 ft | 465 kts | 86° |
| 2026-05-07 17:42 | 44.03412 | 47.56619 | 35057 ft | 466 kts | 87° |
| 2026-05-07 17:43 | 44.03939 | 47.65573 | 35055 ft | 466 kts | 86° |
| 2026-05-07 17:43 | 44.04467 | 47.74568 | 35056 ft | 467 kts | 87° |
| 2026-05-07 17:44 | 44.04986 | 47.83570 | 35057 ft | 467 kts | 87° |
| 2026-05-07 17:44 | 44.05492 | 47.92548 | 35054 ft | 467 kts | 87° |
| 2026-05-07 17:45 | 44.05993 | 48.01575 | 35048 ft | 467 kts | 87° |
| 2026-05-07 17:45 | 44.06488 | 48.10593 | 35045 ft | 468 kts | 87° |
| 2026-05-07 17:46 | 44.06980 | 48.19638 | 35044 ft | 469 kts | 88° |
| 2026-05-07 17:46 | 44.07463 | 48.28661 | 35044 ft | 469 kts | 88° |
| 2026-05-07 17:47 | 44.07933 | 48.37720 | 35042 ft | 470 kts | 88° |
| 2026-05-07 17:47 | 44.08413 | 48.46765 | 35042 ft | 470 kts | 88° |
| 2026-05-07 17:48 | 44.08883 | 48.55868 | 35041 ft | 471 kts | 88° |
| 2026-05-07 17:48 | 44.09343 | 48.64977 | 35041 ft | 472 kts | 88° |
| 2026-05-07 17:49 | 44.09799 | 48.74068 | 35039 ft | 472 kts | 88° |
| 2026-05-07 17:49 | 44.10251 | 48.83172 | 35038 ft | 473 kts | 88° |
| 2026-05-07 17:50 | 44.11101 | 48.92245 | 35033 ft | 476 kts | 72° |
| 2026-05-07 17:50 | 44.12529 | 48.96399 | 35026 ft | 477 kts | 56° |
| 2026-05-07 17:50 | 44.14662 | 48.99901 | 35026 ft | 477 kts | 40° |
| 2026-05-07 17:51 | 44.17352 | 49.02557 | 35017 ft | 474 kts | 26° |
| 2026-05-07 17:51 | 44.20406 | 49.04224 | 35011 ft | 471 kts | 11° |
| 2026-05-07 17:51 | 44.23602 | 49.04808 | 35009 ft | 466 kts | 356° |
| 2026-05-07 17:51 | 44.26798 | 49.04336 | 35004 ft | 460 kts | 342° |
| 2026-05-07 17:52 | 44.32768 | 49.01177 | 35002 ft | 457 kts | 334° |
| 2026-05-07 17:52 | 44.38634 | 48.97737 | 35006 ft | 459 kts | 334° |
| 2026-05-07 17:53 | 44.44523 | 48.94288 | 35008 ft | 460 kts | 334° |
| 2026-05-07 17:53 | 44.50417 | 48.90840 | 35010 ft | 460 kts | 334° |
| 2026-05-07 17:54 | 44.56305 | 48.87403 | 35012 ft | 460 kts | 335° |
| 2026-05-07 17:54 | 44.62226 | 48.83942 | 35015 ft | 461 kts | 335° |
| 2026-05-07 17:55 | 44.68171 | 48.80449 | 35018 ft | 461 kts | 335° |
| 2026-05-07 17:55 | 44.74070 | 48.76973 | 35015 ft | 460 kts | 335° |
| 2026-05-07 17:56 | 44.79960 | 48.73495 | 35010 ft | 460 kts | 335° |
| 2026-05-07 17:56 | 44.85874 | 48.70005 | 35008 ft | 461 kts | 335° |
| 2026-05-07 17:57 | 44.90793 | 48.67087 | 35006 ft | 460 kts | 335° |
| 2026-05-07 17:57 | 44.97655 | 48.63004 | 35005 ft | 460 kts | 335° |
| 2026-05-07 17:58 | 45.03564 | 48.59479 | 35001 ft | 460 kts | 335° |
| 2026-05-07 17:58 | 45.09477 | 48.55962 | 35001 ft | 460 kts | 335° |
| 2026-05-07 17:59 | 45.15371 | 48.52448 | 35000 ft | 460 kts | 336° |
| 2026-05-07 17:59 | 45.21272 | 48.48912 | 35000 ft | 460 kts | 335° |
| 2026-05-07 18:00 | 45.27157 | 48.45379 | 34997 ft | 459 kts | 335° |
| 2026-05-07 18:00 | 45.33016 | 48.41847 | 34996 ft | 459 kts | 335° |
| 2026-05-07 18:01 | 45.38875 | 48.38308 | 34996 ft | 457 kts | 336° |
| 2026-05-07 18:01 | 45.44768 | 48.34753 | 34990 ft | 457 kts | 336° |
| 2026-05-07 18:02 | 45.53496 | 48.29448 | 34979 ft | 455 kts | 336° |
| 2026-05-07 18:03 | 45.59342 | 48.25893 | 34975 ft | 455 kts | 336° |
| 2026-05-07 18:03 | 45.65138 | 48.22365 | 34969 ft | 454 kts | 336° |
| 2026-05-07 18:04 | 45.70923 | 48.18835 | 34963 ft | 454 kts | 336° |
| 2026-05-07 18:04 | 45.76740 | 48.15268 | 34958 ft | 453 kts | 336° |
| 2026-05-07 18:05 | 45.82541 | 48.11704 | 34955 ft | 453 kts | 337° |
| 2026-05-07 18:05 | 45.88342 | 48.08137 | 34955 ft | 453 kts | 337° |
| 2026-05-07 18:06 | 45.94116 | 48.04575 | 34944 ft | 452 kts | 337° |
| 2026-05-07 18:06 | 45.99861 | 48.01022 | 34945 ft | 452 kts | 337° |
| 2026-05-07 18:07 | 46.05560 | 47.97138 | 34942 ft | 452 kts | 327° |
| 2026-05-07 18:07 | 46.10246 | 47.91126 | 34943 ft | 452 kts | 308° |
| 2026-05-07 18:08 | 46.13771 | 47.83620 | 34936 ft | 453 kts | 303° |
| 2026-05-07 18:08 | 46.17202 | 47.76020 | 34936 ft | 454 kts | 303° |
| 2026-05-07 18:09 | 46.20653 | 47.68352 | 34940 ft | 454 kts | 303° |
| 2026-05-07 18:09 | 46.24089 | 47.60703 | 34943 ft | 455 kts | 303° |
| 2026-05-07 18:10 | 46.27520 | 47.53051 | 34945 ft | 455 kts | 303° |
| 2026-05-07 18:10 | 46.30965 | 47.45343 | 34947 ft | 455 kts | 303° |
| 2026-05-07 18:11 | 46.34379 | 47.37679 | 34950 ft | 455 kts | 303° |
| 2026-05-07 18:11 | 46.37805 | 47.29973 | 34955 ft | 455 kts | 303° |
| 2026-05-07 18:12 | 46.41208 | 47.22301 | 34958 ft | 454 kts | 303° |
| 2026-05-07 18:12 | 46.44614 | 47.14596 | 34956 ft | 454 kts | 303° |
| 2026-05-07 18:13 | 46.48007 | 47.06909 | 34959 ft | 454 kts | 303° |
| 2026-05-07 18:13 | 46.51411 | 46.99160 | 34960 ft | 453 kts | 303° |
| 2026-05-07 18:14 | 46.54771 | 46.91483 | 34960 ft | 453 kts | 303° |
| 2026-05-07 18:14 | 46.58149 | 46.83758 | 34965 ft | 453 kts | 303° |
| 2026-05-07 18:15 | 46.61517 | 46.76036 | 34971 ft | 452 kts | 303° |
| 2026-05-07 18:15 | 46.64871 | 46.68333 | 34974 ft | 452 kts | 303° |
| 2026-05-07 18:16 | 46.68233 | 46.60596 | 34976 ft | 451 kts | 303° |
| 2026-05-07 18:16 | 46.71571 | 46.52863 | 34975 ft | 451 kts | 303° |
| 2026-05-07 18:17 | 46.74909 | 46.45104 | 34980 ft | 451 kts | 303° |
| 2026-05-07 18:17 | 46.78242 | 46.37350 | 34982 ft | 451 kts | 303° |
| 2026-05-07 18:18 | 46.81559 | 46.29610 | 34981 ft | 450 kts | 303° |
| 2026-05-07 18:18 | 46.84868 | 46.21870 | 34984 ft | 450 kts | 303° |
| 2026-05-07 18:19 | 46.88172 | 46.14109 | 34991 ft | 450 kts | 303° |
| 2026-05-07 18:19 | 46.91762 | 46.06658 | 34995 ft | 447 kts | 315° |
| 2026-05-07 18:20 | 46.96650 | 46.01121 | 34994 ft | 443 kts | 333° |
| 2026-05-07 18:20 | 47.02196 | 45.97233 | 34988 ft | 443 kts | 335° |
| 2026-05-07 18:21 | 47.07738 | 45.93373 | 34986 ft | 443 kts | 335° |
| 2026-05-07 18:21 | 47.13325 | 45.89449 | 34987 ft | 443 kts | 335° |
| 2026-05-07 18:22 | 47.18846 | 45.85561 | 34988 ft | 442 kts | 335° |
| 2026-05-07 18:22 | 47.24425 | 45.81633 | 34990 ft | 442 kts | 335° |
| 2026-05-07 18:23 | 47.29961 | 45.77721 | 34989 ft | 442 kts | 335° |
| 2026-05-07 18:23 | 47.35481 | 45.73796 | 34999 ft | 442 kts | 335° |
| 2026-05-07 18:24 | 47.41006 | 45.69874 | 34990 ft | 441 kts | 335° |
| 2026-05-07 18:24 | 47.46547 | 45.65948 | 34990 ft | 441 kts | 335° |
| 2026-05-07 18:25 | 47.52107 | 45.61991 | 34991 ft | 441 kts | 335° |
| 2026-05-07 18:25 | 47.57618 | 45.58047 | 34985 ft | 441 kts | 335° |
| 2026-05-07 18:26 | 47.63123 | 45.54095 | 34985 ft | 441 kts | 335° |
| 2026-05-07 18:26 | 47.68641 | 45.50131 | 34994 ft | 441 kts | 335° |
| 2026-05-07 18:27 | 47.74187 | 45.46153 | 34986 ft | 441 kts | 335° |
| 2026-05-07 18:27 | 47.79604 | 45.41953 | 34979 ft | 441 kts | 326° |
| 2026-05-07 18:28 | 47.84280 | 45.36046 | 34980 ft | 442 kts | 319° |
| 2026-05-07 18:28 | 47.88837 | 45.29880 | 34995 ft | 442 kts | 319° |
| 2026-05-07 18:29 | 47.92647 | 45.24738 | 34989 ft | 443 kts | 319° |
| 2026-05-07 18:29 | 47.97198 | 45.18583 | 34982 ft | 443 kts | 318° |
| 2026-05-07 18:30 | 48.01765 | 45.12374 | 34982 ft | 442 kts | 320° |
| 2026-05-07 18:30 | 48.06782 | 45.07049 | 34985 ft | 441 kts | 327° |
| 2026-05-07 18:31 | 48.11856 | 45.01978 | 34992 ft | 441 kts | 327° |
| 2026-05-07 18:31 | 48.16942 | 44.96869 | 34996 ft | 441 kts | 327° |
| 2026-05-07 18:32 | 48.22043 | 44.91732 | 34984 ft | 441 kts | 327° |
| 2026-05-07 18:32 | 48.27116 | 44.86614 | 34986 ft | 441 kts | 327° |
| 2026-05-07 18:33 | 48.32200 | 44.81464 | 34998 ft | 441 kts | 327° |
| 2026-05-07 18:33 | 48.37274 | 44.76300 | 34996 ft | 441 kts | 327° |
| 2026-05-07 18:34 | 48.42385 | 44.71099 | 34996 ft | 441 kts | 327° |
| 2026-05-07 18:34 | 48.47441 | 44.65945 | 34992 ft | 441 kts | 327° |
| 2026-05-07 18:35 | 48.52546 | 44.60719 | 35002 ft | 441 kts | 327° |
| 2026-05-07 18:35 | 48.57608 | 44.55520 | 35010 ft | 441 kts | 327° |
| 2026-05-07 18:36 | 48.62645 | 44.50324 | 35022 ft | 441 kts | 327° |
| 2026-05-07 18:36 | 48.67716 | 44.45099 | 35037 ft | 441 kts | 327° |
| 2026-05-07 18:37 | 48.72784 | 44.39865 | 35039 ft | 441 kts | 327° |
| 2026-05-07 18:37 | 48.77888 | 44.34776 | 35041 ft | 439 kts | 333° |
| 2026-05-07 18:38 | 48.83517 | 44.31279 | 35042 ft | 438 kts | 340° |
| 2026-05-07 18:38 | 48.89249 | 44.28054 | 35040 ft | 437 kts | 340° |
| 2026-05-07 18:39 | 48.94929 | 44.24856 | 35034 ft | 437 kts | 340° |
| 2026-05-07 18:39 | 49.00615 | 44.21628 | 35029 ft | 437 kts | 340° |
| 2026-05-07 18:40 | 49.06310 | 44.18375 | 35024 ft | 436 kts | 340° |
| 2026-05-07 18:40 | 49.11979 | 44.15130 | 35013 ft | 436 kts | 340° |
| 2026-05-07 18:41 | 49.17682 | 44.11866 | 35006 ft | 435 kts | 340° |
| 2026-05-07 18:41 | 49.23327 | 44.08636 | 35010 ft | 435 kts | 340° |
| 2026-05-07 18:42 | 49.29013 | 44.05371 | 35006 ft | 435 kts | 340° |
| 2026-05-07 18:42 | 49.34668 | 44.02107 | 35007 ft | 435 kts | 340° |
| 2026-05-07 18:43 | 49.40314 | 43.98846 | 35003 ft | 435 kts | 340° |
| 2026-05-07 18:43 | 49.45962 | 43.95574 | 35003 ft | 434 kts | 340° |
| 2026-05-07 18:44 | 49.51602 | 43.92229 | 35006 ft | 435 kts | 336° |
| 2026-05-07 18:44 | 49.56975 | 43.87821 | 35007 ft | 436 kts | 333° |
| 2026-05-07 18:45 | 49.62280 | 43.83368 | 35008 ft | 435 kts | 333° |
| 2026-05-07 18:45 | 49.67606 | 43.78898 | 35007 ft | 435 kts | 333° |
| 2026-05-07 18:46 | 49.72930 | 43.74422 | 35009 ft | 435 kts | 333° |
| 2026-05-07 18:46 | 49.78217 | 43.69958 | 35007 ft | 435 kts | 333° |
| 2026-05-07 18:47 | 49.83540 | 43.65452 | 35008 ft | 435 kts | 333° |
| 2026-05-07 18:47 | 49.88853 | 43.60952 | 35001 ft | 435 kts | 332° |
| 2026-05-07 18:48 | 49.94166 | 43.56436 | 35003 ft | 435 kts | 332° |
| 2026-05-07 18:48 | 49.96804 | 43.54187 | 34636 ft | 431 kts | 332° |
| 2026-05-07 18:48 | 49.99429 | 43.51946 | 34146 ft | 429 kts | 332° |
| 2026-05-07 18:48 | 50.02041 | 43.49712 | 33964 ft | 429 kts | 332° |
| 2026-05-07 18:49 | 50.04665 | 43.47462 | 33991 ft | 431 kts | 332° |
| 2026-05-07 18:49 | 50.09918 | 43.42943 | 33991 ft | 432 kts | 332° |
| 2026-05-07 18:50 | 50.15151 | 43.38437 | 33988 ft | 432 kts | 332° |
| 2026-05-07 18:50 | 50.20431 | 43.33910 | 33988 ft | 432 kts | 332° |
| 2026-05-07 18:51 | 50.25704 | 43.29364 | 33986 ft | 433 kts | 332° |
| 2026-05-07 18:51 | 50.30938 | 43.24823 | 33985 ft | 433 kts | 332° |
| 2026-05-07 18:52 | 50.36203 | 43.20251 | 33980 ft | 432 kts | 332° |
| 2026-05-07 18:52 | 50.41470 | 43.15676 | 33978 ft | 433 kts | 332° |
| 2026-05-07 18:53 | 50.46739 | 43.11088 | 33977 ft | 433 kts | 332° |
| 2026-05-07 18:53 | 50.52004 | 43.06482 | 33973 ft | 433 kts | 332° |
| 2026-05-07 18:54 | 50.57269 | 43.01855 | 33972 ft | 433 kts | 332° |
| 2026-05-07 18:54 | 50.62543 | 42.97230 | 33975 ft | 434 kts | 332° |
| 2026-05-07 18:55 | 50.67786 | 42.92614 | 33976 ft | 434 kts | 331° |
| 2026-05-07 18:55 | 50.73340 | 42.88925 | 33979 ft | 433 kts | 341° |
| 2026-05-07 18:56 | 50.79025 | 42.85767 | 33979 ft | 433 kts | 341° |
| 2026-05-07 18:56 | 50.84704 | 42.82592 | 33979 ft | 433 kts | 341° |
| 2026-05-07 18:57 | 50.90390 | 42.79411 | 33978 ft | 433 kts | 341° |
| 2026-05-07 18:57 | 50.96075 | 42.76228 | 33976 ft | 433 kts | 341° |
| 2026-05-07 18:58 | 51.01715 | 42.73065 | 33976 ft | 433 kts | 341° |
| 2026-05-07 18:58 | 51.07399 | 42.69854 | 33968 ft | 433 kts | 341° |
| 2026-05-07 18:59 | 51.13075 | 42.66641 | 33965 ft | 433 kts | 341° |
| 2026-05-07 18:59 | 51.18754 | 42.63428 | 33969 ft | 433 kts | 341° |
| 2026-05-07 19:00 | 51.24428 | 42.60203 | 33972 ft | 433 kts | 341° |
| 2026-05-07 19:00 | 51.30101 | 42.56973 | 33963 ft | 433 kts | 341° |
| 2026-05-07 19:01 | 51.35774 | 42.53744 | 33960 ft | 433 kts | 340° |
| 2026-05-07 19:01 | 51.41443 | 42.50491 | 33959 ft | 433 kts | 340° |
| 2026-05-07 19:02 | 51.47119 | 42.47226 | 33961 ft | 433 kts | 340° |
| 2026-05-07 19:02 | 51.52802 | 42.43965 | 33960 ft | 433 kts | 340° |
| 2026-05-07 19:03 | 51.58441 | 42.40709 | 33964 ft | 434 kts | 340° |
| 2026-05-07 19:03 | 51.64120 | 42.37413 | 33966 ft | 434 kts | 340° |
| 2026-05-07 19:04 | 51.69797 | 42.34123 | 33966 ft | 433 kts | 340° |
| 2026-05-07 19:04 | 51.75471 | 42.30816 | 33982 ft | 433 kts | 340° |
| 2026-05-07 19:05 | 51.81143 | 42.27515 | 33958 ft | 433 kts | 340° |
| 2026-05-07 19:05 | 51.86816 | 42.24205 | 33965 ft | 433 kts | 340° |
| 2026-05-07 19:06 | 51.92444 | 42.20906 | 33961 ft | 432 kts | 340° |
| 2026-05-07 19:06 | 52.00931 | 42.15898 | 33965 ft | 433 kts | 340° |
| 2026-05-07 19:07 | 52.06595 | 42.12546 | 33964 ft | 433 kts | 340° |
| 2026-05-07 19:07 | 52.12265 | 42.09215 | 33970 ft | 433 kts | 340° |
| 2026-05-07 19:08 | 52.17972 | 42.06063 | 33970 ft | 433 kts | 341° |
| 2026-05-07 19:08 | 52.23700 | 42.02964 | 33976 ft | 434 kts | 341° |
| 2026-05-07 19:09 | 52.29422 | 41.99819 | 33973 ft | 433 kts | 341° |
| 2026-05-07 19:09 | 52.35147 | 41.96711 | 33972 ft | 434 kts | 345° |
| 2026-05-07 19:10 | 52.41089 | 41.95679 | 33969 ft | 434 kts | 1° |
| 2026-05-07 19:10 | 52.47138 | 41.96026 | 33966 ft | 435 kts | 1° |
| 2026-05-07 19:11 | 52.53196 | 41.96358 | 33970 ft | 435 kts | 1° |
| 2026-05-07 19:11 | 52.59252 | 41.96690 | 33972 ft | 435 kts | 1° |
| 2026-05-07 19:12 | 52.65309 | 41.96975 | 33967 ft | 435 kts | 357° |
| 2026-05-07 19:12 | 52.71197 | 41.94988 | 33966 ft | 433 kts | 337° |
| 2026-05-07 19:13 | 52.76315 | 41.89968 | 33960 ft | 432 kts | 321° |
| 2026-05-07 19:13 | 52.80985 | 41.83689 | 33958 ft | 433 kts | 321° |
| 2026-05-07 19:14 | 52.85657 | 41.77388 | 33961 ft | 434 kts | 321° |
| 2026-05-07 19:14 | 52.90329 | 41.71074 | 33967 ft | 434 kts | 321° |
| 2026-05-07 19:15 | 52.95010 | 41.64744 | 33969 ft | 434 kts | 321° |
| 2026-05-07 19:15 | 52.99677 | 41.58389 | 33973 ft | 434 kts | 320° |
| 2026-05-07 19:16 | 53.04334 | 41.52023 | 33971 ft | 433 kts | 320° |
| 2026-05-07 19:16 | 53.08980 | 41.45644 | 33974 ft | 433 kts | 320° |
| 2026-05-07 19:17 | 53.13622 | 41.39284 | 33974 ft | 432 kts | 320° |
| 2026-05-07 19:17 | 53.18257 | 41.32906 | 33972 ft | 432 kts | 320° |
| 2026-05-07 19:18 | 53.23105 | 41.27123 | 33964 ft | 432 kts | 333° |
| 2026-05-07 19:18 | 53.28757 | 41.23713 | 33965 ft | 432 kts | 342° |
| 2026-05-07 19:19 | 53.33545 | 41.21288 | 33962 ft | 432 kts | 342° |
| 2026-05-07 19:19 | 53.39299 | 41.18331 | 33962 ft | 432 kts | 342° |
| 2026-05-07 19:20 | 53.45052 | 41.15386 | 33960 ft | 432 kts | 342° |
| 2026-05-07 19:20 | 53.50799 | 41.12433 | 33955 ft | 432 kts | 342° |
| 2026-05-07 19:21 | 53.56555 | 41.09459 | 33956 ft | 433 kts | 342° |
| 2026-05-07 19:21 | 53.62317 | 41.06490 | 33957 ft | 432 kts | 342° |
| 2026-05-07 19:22 | 53.67720 | 41.02341 | 33953 ft | 430 kts | 324° |
| 2026-05-07 19:22 | 53.71924 | 40.95246 | 33951 ft | 429 kts | 304° |
| 2026-05-07 19:23 | 53.74606 | 40.86255 | 33940 ft | 429 kts | 294° |
| 2026-05-07 19:23 | 53.76991 | 40.76989 | 33937 ft | 430 kts | 294° |
| 2026-05-07 19:24 | 53.79363 | 40.67728 | 33934 ft | 429 kts | 294° |
| 2026-05-07 19:24 | 53.81733 | 40.58455 | 33934 ft | 429 kts | 294° |
| 2026-05-07 19:25 | 53.84095 | 40.49177 | 33939 ft | 429 kts | 293° |
| 2026-05-07 19:25 | 53.86452 | 40.39881 | 33944 ft | 430 kts | 293° |
| 2026-05-07 19:26 | 53.88813 | 40.30580 | 33943 ft | 429 kts | 293° |
| 2026-05-07 19:26 | 53.91161 | 40.21278 | 33946 ft | 429 kts | 293° |
| 2026-05-07 19:27 | 53.93485 | 40.12017 | 33947 ft | 429 kts | 293° |
| 2026-05-07 19:27 | 53.95815 | 40.02701 | 33943 ft | 428 kts | 293° |
| 2026-05-07 19:28 | 53.98134 | 39.93396 | 33948 ft | 427 kts | 293° |
| 2026-05-07 19:28 | 54.00454 | 39.84092 | 33942 ft | 427 kts | 293° |
| 2026-05-07 19:29 | 54.02755 | 39.74784 | 33940 ft | 426 kts | 293° |
| 2026-05-07 19:29 | 54.05049 | 39.65473 | 33938 ft | 426 kts | 293° |
| 2026-05-07 19:30 | 54.07327 | 39.56166 | 33939 ft | 426 kts | 293° |
| 2026-05-07 19:30 | 54.09573 | 39.46994 | 33820 ft | 414 kts | 293° |
| 2026-05-07 19:31 | 54.10674 | 39.42491 | 33312 ft | 409 kts | 293° |
| 2026-05-07 19:31 | 54.11763 | 39.38025 | 32826 ft | 407 kts | 293° |
| 2026-05-07 19:31 | 54.12843 | 39.33574 | 32355 ft | 407 kts | 292° |
| 2026-05-07 19:31 | 54.13926 | 39.29103 | 31864 ft | 408 kts | 292° |
| 2026-05-07 19:32 | 54.15013 | 39.24606 | 31406 ft | 409 kts | 292° |
| 2026-05-07 19:32 | 54.16100 | 39.20105 | 30949 ft | 411 kts | 292° |
| 2026-05-07 19:32 | 54.17183 | 39.15592 | 30502 ft | 412 kts | 292° |
| 2026-05-07 19:32 | 54.18271 | 39.11043 | 30059 ft | 414 kts | 292° |
| 2026-05-07 19:33 | 54.19356 | 39.06479 | 29551 ft | 415 kts | 292° |
| 2026-05-07 19:33 | 54.20431 | 39.01961 | 29062 ft | 416 kts | 292° |
| 2026-05-07 19:33 | 54.21580 | 38.97409 | 28544 ft | 417 kts | 297° |
| 2026-05-07 19:33 | 54.23128 | 38.93225 | 28071 ft | 418 kts | 307° |
| 2026-05-07 19:34 | 54.25088 | 38.89603 | 27883 ft | 409 kts | 317° |
| 2026-05-07 19:34 | 54.27299 | 38.86686 | 27927 ft | 399 kts | 326° |
| 2026-05-07 19:34 | 54.29727 | 38.84393 | 27932 ft | 399 kts | 332° |
| 2026-05-07 19:34 | 54.32216 | 38.82267 | 27930 ft | 399 kts | 332° |
| 2026-05-07 19:35 | 54.34701 | 38.80152 | 27934 ft | 399 kts | 332° |
| 2026-05-07 19:35 | 54.37194 | 38.78026 | 27931 ft | 399 kts | 332° |
| 2026-05-07 19:35 | 54.39683 | 38.75897 | 27882 ft | 400 kts | 332° |
| 2026-05-07 19:35 | 54.42164 | 38.73774 | 27453 ft | 396 kts | 332° |
| 2026-05-07 19:36 | 54.44616 | 38.71668 | 26907 ft | 392 kts | 331° |
| 2026-05-07 19:36 | 54.47010 | 38.69611 | 26378 ft | 387 kts | 331° |
| 2026-05-07 19:36 | 54.49439 | 38.67527 | 25971 ft | 384 kts | 331° |
| 2026-05-07 19:36 | 54.51834 | 38.65469 | 25911 ft | 386 kts | 331° |
| 2026-05-07 19:37 | 54.54208 | 38.63419 | 25928 ft | 387 kts | 331° |
| 2026-05-07 19:37 | 54.56620 | 38.61333 | 25926 ft | 387 kts | 331° |
| 2026-05-07 19:37 | 54.59027 | 38.59245 | 25926 ft | 387 kts | 331° |
| 2026-05-07 19:37 | 54.61434 | 38.57152 | 25928 ft | 387 kts | 331° |
| 2026-05-07 19:38 | 54.63838 | 38.55058 | 25926 ft | 387 kts | 331° |
| 2026-05-07 19:38 | 54.66246 | 38.52964 | 25925 ft | 387 kts | 331° |
| 2026-05-07 19:38 | 54.68618 | 38.50899 | 25923 ft | 387 kts | 330° |
| 2026-05-07 19:38 | 54.71024 | 38.48800 | 25920 ft | 387 kts | 330° |
| 2026-05-07 19:39 | 54.73427 | 38.46706 | 25921 ft | 387 kts | 330° |
| 2026-05-07 19:39 | 54.75838 | 38.44610 | 25716 ft | 386 kts | 330° |
| 2026-05-07 19:39 | 54.78242 | 38.42524 | 25535 ft | 385 kts | 330° |
| 2026-05-07 19:39 | 54.80634 | 38.40450 | 25354 ft | 384 kts | 330° |
| 2026-05-07 19:40 | 54.83022 | 38.38370 | 25175 ft | 382 kts | 329° |
| 2026-05-07 19:40 | 54.85259 | 38.35920 | 24996 ft | 378 kts | 319° |
| 2026-05-07 19:40 | 54.87192 | 38.32867 | 24820 ft | 374 kts | 311° |
| 2026-05-07 19:40 | 54.89003 | 38.29631 | 24641 ft | 373 kts | 312° |
| 2026-05-07 19:41 | 54.90814 | 38.26404 | 24480 ft | 372 kts | 312° |
| 2026-05-07 19:41 | 54.92620 | 38.23186 | 24297 ft | 371 kts | 311° |
| 2026-05-07 19:41 | 54.94394 | 38.20020 | 24123 ft | 370 kts | 311° |
| 2026-05-07 19:41 | 54.96213 | 38.16779 | 23944 ft | 369 kts | 311° |
| 2026-05-07 19:42 | 54.97982 | 38.13625 | 23616 ft | 368 kts | 311° |
| 2026-05-07 19:42 | 54.99761 | 38.10437 | 23185 ft | 364 kts | 311° |
| 2026-05-07 19:42 | 55.01518 | 38.07269 | 22809 ft | 362 kts | 311° |
| 2026-05-07 19:42 | 55.03260 | 38.04122 | 22428 ft | 360 kts | 311° |
| 2026-05-07 19:43 | 55.04994 | 38.00990 | 22062 ft | 358 kts | 311° |
| 2026-05-07 19:43 | 55.06719 | 37.97877 | 21699 ft | 356 kts | 312° |
| 2026-05-07 19:43 | 55.08588 | 37.95047 | 21434 ft | 356 kts | 317° |
| 2026-05-07 19:43 | 55.10494 | 37.92379 | 21178 ft | 355 kts | 318° |
| 2026-05-07 19:44 | 55.12432 | 37.89705 | 20922 ft | 354 kts | 318° |
| 2026-05-07 19:44 | 55.14372 | 37.87047 | 20675 ft | 353 kts | 318° |
| 2026-05-07 19:44 | 55.16302 | 37.84399 | 20423 ft | 352 kts | 318° |
| 2026-05-07 19:44 | 55.18219 | 37.81757 | 20177 ft | 351 kts | 318° |
| 2026-05-07 19:45 | 55.20130 | 37.79107 | 19929 ft | 350 kts | 318° |
| 2026-05-07 19:45 | 55.22035 | 37.76457 | 19688 ft | 348 kts | 318° |
| 2026-05-07 19:45 | 55.23932 | 37.73818 | 19453 ft | 347 kts | 317° |
| 2026-05-07 19:45 | 55.25817 | 37.71186 | 19209 ft | 346 kts | 317° |
| 2026-05-07 19:46 | 55.27702 | 37.68542 | 18964 ft | 345 kts | 317° |
| 2026-05-07 19:46 | 55.29574 | 37.65919 | 18739 ft | 344 kts | 317° |
| 2026-05-07 19:46 | 55.31440 | 37.63302 | 18499 ft | 343 kts | 317° |
| 2026-05-07 19:46 | 55.33304 | 37.60689 | 18258 ft | 342 kts | 317° |
| 2026-05-07 19:47 | 55.35159 | 37.58090 | 17998 ft | 341 kts | 317° |
| 2026-05-07 19:47 | 55.37010 | 37.55495 | 17734 ft | 339 kts | 317° |
| 2026-05-07 19:47 | 55.38827 | 37.52940 | 17476 ft | 338 kts | 317° |
| 2026-05-07 19:47 | 55.40661 | 37.50358 | 17206 ft | 337 kts | 317° |
| 2026-05-07 19:48 | 55.42491 | 37.47777 | 16932 ft | 336 kts | 316° |
| 2026-05-07 19:48 | 55.44308 | 37.45206 | 16881 ft | 334 kts | 316° |
| 2026-05-07 19:48 | 55.46127 | 37.42626 | 16892 ft | 335 kts | 316° |
| 2026-05-07 19:48 | 55.47927 | 37.40080 | 16892 ft | 325 kts | 316° |
| 2026-05-07 19:49 | 55.49738 | 37.37817 | 16891 ft | 318 kts | 326° |
| 2026-05-07 19:49 | 55.51764 | 37.36343 | 16874 ft | 323 kts | 339° |
| 2026-05-07 19:49 | 55.54000 | 37.35733 | 16616 ft | 328 kts | 354° |
| 2026-05-07 19:49 | 55.56290 | 37.35721 | 16364 ft | 328 kts | 354° |
| 2026-05-07 19:50 | 55.58573 | 37.35713 | 16111 ft | 327 kts | 354° |
| 2026-05-07 19:50 | 55.60846 | 37.35700 | 15853 ft | 327 kts | 354° |
| 2026-05-07 19:50 | 55.63117 | 37.35682 | 15605 ft | 325 kts | 354° |
| 2026-05-07 19:50 | 55.65384 | 37.35656 | 15271 ft | 325 kts | 354° |
| 2026-05-07 19:51 | 55.67637 | 37.35628 | 14851 ft | 323 kts | 354° |
| 2026-05-07 19:51 | 55.69883 | 37.35601 | 14414 ft | 322 kts | 354° |
| 2026-05-07 19:51 | 55.72121 | 37.35571 | 13992 ft | 321 kts | 354° |
| 2026-05-07 19:51 | 55.74347 | 37.35485 | 13552 ft | 319 kts | 352° |
| 2026-05-07 19:52 | 55.76534 | 37.35286 | 13114 ft | 317 kts | 351° |
| 2026-05-07 19:52 | 55.78725 | 37.35028 | 12686 ft | 314 kts | 350° |
| 2026-05-07 19:52 | 55.80900 | 37.34759 | 12276 ft | 312 kts | 350° |
| 2026-05-07 19:52 | 55.83064 | 37.34494 | 11858 ft | 310 kts | 350° |
| 2026-05-07 19:53 | 55.85207 | 37.34239 | 11577 ft | 308 kts | 350° |
| 2026-05-07 19:53 | 55.87347 | 37.33989 | 11301 ft | 307 kts | 351° |
| 2026-05-07 19:53 | 55.89488 | 37.33746 | 11029 ft | 307 kts | 351° |
| 2026-05-07 19:53 | 55.91638 | 37.33921 | 10582 ft | 315 kts | 9° |
| 2026-05-07 19:54 | 55.93686 | 37.35366 | 10216 ft | 319 kts | 22° |
| 2026-05-07 19:54 | 55.95683 | 37.37102 | 9761 ft | 320 kts | 23° |
| 2026-05-07 19:54 | 55.97654 | 37.38857 | 9275 ft | 320 kts | 23° |
| 2026-05-07 19:54 | 55.99641 | 37.40644 | 8797 ft | 319 kts | 24° |
| 2026-05-07 19:55 | 56.01611 | 37.42426 | 8341 ft | 317 kts | 24° |
| 2026-05-07 19:55 | 56.03570 | 37.44192 | 7919 ft | 314 kts | 24° |
| 2026-05-07 19:55 | 56.05515 | 37.45933 | 7495 ft | 309 kts | 24° |
| 2026-05-07 19:55 | 56.07406 | 37.47627 | 7230 ft | 296 kts | 23° |
| 2026-05-07 19:56 | 56.09181 | 37.49222 | 7046 ft | 276 kts | 24° |
| 2026-05-07 19:56 | 56.10842 | 37.50722 | 6907 ft | 259 kts | 23° |
| 2026-05-07 19:56 | 56.12413 | 37.52145 | 6655 ft | 249 kts | 24° |
| 2026-05-07 19:56 | 56.13950 | 37.53531 | 6298 ft | 247 kts | 24° |
| 2026-05-07 19:57 | 56.15475 | 37.54914 | 5939 ft | 244 kts | 24° |
| 2026-05-07 19:57 | 56.16789 | 37.56835 | 5543 ft | 249 kts | 56° |
| 2026-05-07 19:57 | 56.17406 | 37.59707 | 5143 ft | 249 kts | 88° |
| 2026-05-07 19:57 | 56.17151 | 37.62672 | 4902 ft | 234 kts | 120° |
| 2026-05-07 19:58 | 56.16304 | 37.64963 | 5112 ft | 221 kts | 138° |
| 2026-05-07 19:58 | 56.15256 | 37.66973 | 4849 ft | 217 kts | 139° |
| 2026-05-07 19:58 | 56.14232 | 37.68869 | 4730 ft | 206 kts | 140° |
| 2026-05-07 19:58 | 56.13253 | 37.70664 | 4526 ft | 197 kts | 140° |
| 2026-05-07 19:59 | 56.12273 | 37.72356 | 4306 ft | 193 kts | 151° |
| 2026-05-07 19:59 | 56.11081 | 37.73199 | 4198 ft | 182 kts | 180° |
| 2026-05-07 19:59 | 56.09868 | 37.72884 | 4164 ft | 176 kts | 207° |
| 2026-05-07 19:59 | 56.08823 | 37.71944 | 4153 ft | 162 kts | 210° |
| 2026-05-07 20:00 | 56.07797 | 37.70993 | 4120 ft | 168 kts | 211° |
| 2026-05-07 20:00 | 56.06750 | 37.70019 | 3896 ft | 170 kts | 212° |
| 2026-05-07 20:00 | 56.05687 | 37.69033 | 3663 ft | 170 kts | 210° |
| 2026-05-07 20:00 | 56.04628 | 37.68057 | 3433 ft | 171 kts | 208° |
| 2026-05-07 20:01 | 56.03578 | 37.67080 | 3239 ft | 170 kts | 212° |
| 2026-05-07 20:01 | 56.02560 | 37.66028 | 3008 ft | 168 kts | 221° |
| 2026-05-07 20:01 | 56.01972 | 37.64264 | 2807 ft | 168 kts | 255° |
| 2026-05-07 20:01 | 56.02136 | 37.62193 | 2812 ft | 172 kts | 290° |
| 2026-05-07 20:02 | 56.02644 | 37.60270 | 2798 ft | 176 kts | 298° |
| 2026-05-07 20:02 | 56.03571 | 37.58772 | 2819 ft | 182 kts | 323° |
| 2026-05-07 20:02 | 56.04748 | 37.58066 | 2778 ft | 183 kts | 355° |
| 2026-05-07 20:02 | 56.06001 | 37.58633 | 2791 ft | 193 kts | 27° |
| 2026-05-07 20:03 | 56.06882 | 37.60403 | 2822 ft | 193 kts | 67° |
| 2026-05-07 20:03 | 56.06992 | 37.62720 | 2806 ft | 188 kts | 107° |
| 2026-05-07 20:03 | 56.06357 | 37.64665 | 2818 ft | 181 kts | 141° |
| 2026-05-07 20:03 | 56.05251 | 37.65605 | 2819 ft | 175 kts | 176° |
| 2026-05-07 20:04 | 56.04065 | 37.65390 | 2810 ft | 173 kts | 197° |
| 2026-05-07 20:04 | 56.02878 | 37.64959 | 2799 ft | 173 kts | 193° |
| 2026-05-07 20:04 | 56.01726 | 37.64538 | 2790 ft | 161 kts | 200° |
| 2026-05-07 20:04 | 56.00781 | 37.63575 | 2723 ft | 154 kts | 225° |
| 2026-05-07 20:05 | 56.00187 | 37.62009 | 2582 ft | 154 kts | 247° |
| 2026-05-07 20:05 | 55.99901 | 37.60173 | 2423 ft | 151 kts | 254° |
| 2026-05-07 20:05 | 55.99637 | 37.58379 | 2223 ft | 147 kts | 254° |
| 2026-05-07 20:05 | 55.99383 | 37.56643 | 2040 ft | 142 kts | 252° |
| 2026-05-07 20:06 | 55.99136 | 37.54962 | 1846 ft | 140 kts | 254° |
| 2026-05-07 20:06 | 55.98887 | 37.53271 | 1649 ft | 139 kts | 253° |
| 2026-05-07 20:06 | 55.98641 | 37.51604 | 1479 ft | 142 kts | 254° |
| 2026-05-07 20:06 | 55.98383 | 37.49873 | 1293 ft | 144 kts | 255° |
| 2026-05-07 20:07 | 55.98123 | 37.48128 | 1104 ft | 146 kts | 256° |
| 2026-05-07 20:07 | 55.97868 | 37.46375 | 912 ft | 145 kts | 256° |
| 2026-05-07 20:07 | 55.97614 | 37.44656 | 714 ft | 144 kts | 256° |
| 2026-05-07 20:07 | 55.97361 | 37.42969 | 642 ft | 132 kts | 256° |
| 2026-05-07 20:08 | 55.97179 | 37.41732 | 639 ft | 76 kts | 255° |
| 2026-05-07 20:08 | 55.97137 | 37.41407 | 641 ft | 11 kts | 279° |
| 2026-05-07 20:08 | 55.97195 | 37.41333 | 639 ft | 11 kts | 345° |
| 2026-05-07 20:08 | 55.97243 | 37.41309 | 639 ft | 10 kts | 345° |
| 2026-05-07 20:09 | 55.97309 | 37.41278 | 640 ft | 9 kts | 345° |
| 2026-05-07 20:09 | 55.97367 | 37.41250 | 640 ft | 9 kts | 345° |
| 2026-05-07 20:09 | 55.97434 | 37.41218 | 639 ft | 10 kts | 345° |
| 2026-05-07 20:10 | 55.97515 | 37.41191 | 641 ft | 4 kts | 10° |
| 2026-05-07 20:10 | 55.97538 | 37.41224 | 639 ft | 5 kts | 56° |
| 2026-05-07 20:10 | 55.97550 | 37.41291 | 645 ft | 7 kts | 74° |
| 2026-05-07 20:10 | 55.97564 | 37.41379 | 645 ft | 8 kts | 74° |
| 2026-05-07 20:11 | 55.97580 | 37.41487 | 641 ft | 10 kts | 75° |
| 2026-05-07 20:11 | 55.97613 | 37.41590 | 643 ft | 10 kts | 25° |
| 2026-05-07 20:11 | 55.97690 | 37.41577 | 644 ft | 12 kts | 345° |
| 2026-05-07 20:11 | 55.97779 | 37.41534 | 641 ft | 14 kts | 345° |
| 2026-05-07 20:12 | 55.97882 | 37.41484 | 641 ft | 16 kts | 345° |
| 2026-05-07 20:12 | 55.97991 | 37.41433 | 639 ft | 13 kts | 345° |
| 2026-05-07 20:12 | 55.98049 | 37.41428 | 643 ft | 7 kts | 30° |
| 2026-05-07 20:12 | 55.98062 | 37.41479 | 647 ft | 4 kts | 74° |
| 2026-05-07 20:13 | 55.98068 | 37.41523 | 641 ft | 3 kts | 76° |
| 2026-05-07 20:13 | 55.98070 | 37.41537 | 643 ft | 0 kts | 76° |